Time;durP1;ratioP1;P1;durP2;ratioP2;P2;SDS_P1;SDS_P2;PMS_P1;PMS_P2;Temp;Humidity;BMP_temperature;BMP_pressure;BME280_temperature;BME280_humidity;BME280_pressure;Samples;Min_cycle;Max_cycle;Signal;HPM_P1;HPM_P2
2021/06/14 00:00:08;;;;;;;2.58;2.20;;;24.10;80.00;;;;;;4987516;28;20073;-82
2021/06/14 00:02:34;;;;;;;2.83;2.42;;;24.00;80.30;;;;;;4979216;28;20019;-82
2021/06/14 00:05:00;;;;;;;4.50;2.15;;;24.00;80.80;;;;;;4973477;28;20033;-82
2021/06/14 00:07:26;;;;;;;5.28;2.47;;;24.00;80.70;;;;;;4982008;28;20023;-82
2021/06/14 00:09:51;;;;;;;3.28;2.30;;;24.00;81.20;;;;;;4977017;28;20034;-82
2021/06/14 00:12:21;;;;;;;2.83;2.05;;;23.90;81.00;;;;;;4990450;28;20027;-82
2021/06/14 00:14:49;;;;;;;3.10;2.22;;;23.90;81.10;;;;;;4978242;28;20018;-82
2021/06/14 00:17:14;;;;;;;3.67;2.50;;;23.80;81.60;;;;;;4981442;28;20033;-82
2021/06/14 00:19:40;;;;;;;2.88;2.25;;;23.80;82.30;;;;;;4978448;28;20035;-82
2021/06/14 00:22:07;;;;;;;3.92;2.25;;;23.70;82.00;;;;;;4989320;28;20178;-82
2021/06/14 00:24:32;;;;;;;3.70;2.38;;;23.70;82.30;;;;;;4981144;28;20116;-82
2021/06/14 00:26:58;;;;;;;3.58;2.58;;;23.70;82.90;;;;;;4991700;28;20026;-82
2021/06/14 00:29:23;;;;;;;4.72;2.15;;;23.60;82.30;;;;;;4979710;28;20443;-82
2021/06/14 00:31:49;;;;;;;3.28;2.28;;;23.60;82.70;;;;;;4988367;28;20086;-83
2021/06/14 00:34:15;;;;;;;2.92;2.35;;;23.70;82.60;;;;;;4977865;28;20031;-82
2021/06/14 00:36:41;;;;;;;3.00;2.55;;;23.70;82.80;;;;;;4965380;28;20038;-82
2021/06/14 00:39:06;;;;;;;4.53;2.78;;;23.60;82.60;;;;;;4974340;28;20465;-82
2021/06/14 00:41:32;;;;;;;4.18;2.20;;;23.60;83.10;;;;;;4982819;28;20102;-82
2021/06/14 00:43:58;;;;;;;2.75;2.53;;;23.60;83.50;;;;;;4982120;28;20022;-82
2021/06/14 00:46:23;;;;;;;5.63;2.40;;;23.50;83.70;;;;;;4984922;28;20055;-82
2021/06/14 00:48:49;;;;;;;3.78;2.40;;;23.40;83.40;;;;;;4984420;28;20559;-82
2021/06/14 00:51:15;;;;;;;4.28;2.55;;;23.40;83.80;;;;;;4979427;28;20538;-82
2021/06/14 00:53:43;;;;;;;5.22;2.95;;;23.40;85.70;;;;;;5000345;28;20063;-82
2021/06/14 00:56:13;;;;;;;2.70;2.35;;;23.40;84.50;;;;;;4977665;28;20030;-82
2021/06/14 00:58:41;;;;;;;2.97;2.25;;;23.30;85.60;;;;;;4966527;28;20118;-83
2021/06/14 01:01:10;;;;;;;4.43;2.85;;;23.30;85.20;;;;;;4978967;28;20063;-82
2021/06/14 01:03:36;;;;;;;3.63;2.63;;;23.20;85.40;;;;;;4972709;28;20078;-83
2021/06/14 01:06:07;;;;;;;3.38;2.70;;;23.20;85.90;;;;;;4985553;28;20057;-82
2021/06/14 01:08:37;;;;;;;4.68;2.60;;;23.10;86.00;;;;;;4974160;28;20125;-82
2021/06/14 01:11:10;;;;;;;2.72;2.33;;;23.10;86.50;;;;;;4981866;28;20030;-82
2021/06/14 01:13:41;;;;;;;4.75;2.50;;;23.10;87.00;;;;;;4962647;28;20022;-82
2021/06/14 01:16:32;;;;;;;5.10;2.60;;;23.00;87.00;;;;;;4982818;28;20038;-82
2021/06/14 01:19:07;;;;;;;9.05;3.15;;;22.90;87.20;;;;;;4988358;28;20527;-82
2021/06/14 01:22:10;;;;;;;3.65;2.70;;;22.90;87.70;;;;;;4982165;28;20049;-82
2021/06/14 01:25:03;;;;;;;4.15;2.80;;;22.90;87.80;;;;;;4980868;28;20030;-82
2021/06/14 01:27:48;;;;;;;7.38;3.00;;;22.90;87.90;;;;;;4974089;28;20027;-82
2021/06/14 01:30:42;;;;;;;3.38;2.78;;;22.80;87.80;;;;;;4976275;28;20027;-82
2021/06/14 01:33:10;;;;;;;4.03;2.72;;;22.80;87.70;;;;;;4975393;28;20523;-82
2021/06/14 01:35:38;;;;;;;4.70;2.95;;;22.80;88.60;;;;;;4979522;28;20026;-82
2021/06/14 01:38:06;;;;;;;3.78;3.00;;;22.80;89.00;;;;;;4977320;28;20023;-82
2021/06/14 01:40:33;;;;;;;5.43;2.80;;;22.80;88.80;;;;;;4979752;28;20034;-82
2021/06/14 01:43:01;;;;;;;4.35;2.80;;;22.70;88.30;;;;;;4978200;28;20387;-82
2021/06/14 01:45:29;;;;;;;2.95;2.35;;;22.70;88.80;;;;;;4976644;28;20065;-82
2021/06/14 01:47:57;;;;;;;3.50;3.10;;;22.70;89.20;;;;;;4978580;28;20111;-82
2021/06/14 01:50:27;;;;;;;3.88;2.83;;;22.70;89.60;;;;;;4977557;28;20392;-82
2021/06/14 01:52:54;;;;;;;4.50;3.10;;;22.60;89.60;;;;;;4978611;28;20030;-82
2021/06/14 01:55:21;;;;;;;6.43;2.83;;;22.60;89.90;;;;;;4976631;28;20023;-82
2021/06/14 01:57:47;;;;;;;3.15;2.75;;;22.60;89.90;;;;;;5004228;28;20546;-82
2021/06/14 02:00:14;;;;;;;3.67;2.88;;;22.60;90.00;;;;;;4975925;28;20636;-82
2021/06/14 02:02:41;;;;;;;3.15;2.85;;;22.50;90.20;;;;;;4980087;28;20018;-82
2021/06/14 02:05:08;;;;;;;2.90;2.65;;;22.50;90.40;;;;;;4975075;28;20038;-82
2021/06/14 02:07:34;;;;;;;5.20;2.90;;;22.50;90.40;;;;;;4987649;28;20046;-82
2021/06/14 02:10:01;;;;;;;5.75;3.38;;;22.50;90.60;;;;;;4977180;28;20467;-82
2021/06/14 02:12:28;;;;;;;3.35;3.00;;;22.40;90.70;;;;;;4983482;28;20026;-82
2021/06/14 02:14:54;;;;;;;4.38;2.97;;;22.40;90.60;;;;;;4975550;28;20485;-82
2021/06/14 02:17:24;;;;;;;4.22;3.03;;;22.30;91.00;;;;;;4988810;28;20065;-82
2021/06/14 02:19:50;;;;;;;4.32;2.80;;;22.30;91.10;;;;;;4977750;28;20074;-82
2021/06/14 02:22:18;;;;;;;3.58;2.85;;;22.30;91.30;;;;;;4982967;28;20064;-82
2021/06/14 02:24:44;;;;;;;4.55;3.13;;;22.20;91.30;;;;;;4978734;28;20113;-82
2021/06/14 02:27:12;;;;;;;4.38;2.70;;;22.20;91.30;;;;;;4975518;28;20106;-82
2021/06/14 02:29:39;;;;;;;3.58;3.08;;;22.10;91.70;;;;;;4974521;28;20106;-82
2021/06/14 02:32:05;;;;;;;4.38;3.22;;;22.10;91.60;;;;;;4980583;28;20094;-82
2021/06/14 02:34:36;;;;;;;4.78;3.35;;;22.20;91.70;;;;;;4973914;28;20030;-82
2021/06/14 02:37:03;;;;;;;4.28;3.10;;;22.10;91.70;;;;;;4980471;28;20384;-82
2021/06/14 02:39:31;;;;;;;6.55;3.33;;;22.10;91.90;;;;;;4973510;28;20034;-82
2021/06/14 02:41:57;;;;;;;6.82;3.00;;;22.10;92.00;;;;;;4980595;28;20510;-82
2021/06/14 02:44:24;;;;;;;5.43;3.28;;;22.10;92.00;;;;;;4972356;28;20026;-82
2021/06/14 02:46:53;;;;;;;3.45;3.15;;;22.10;92.10;;;;;;4981692;28;20026;-82
2021/06/14 02:49:19;;;;;;;4.57;3.22;;;22.00;92.40;;;;;;4972224;28;20023;-82
2021/06/14 02:51:46;;;;;;;4.57;3.28;;;22.00;92.40;;;;;;4982315;28;20030;-82
2021/06/14 02:54:18;;;;;;;4.57;3.10;;;22.00;92.30;;;;;;4972202;28;20022;-82
2021/06/14 02:56:46;;;;;;;3.58;3.20;;;21.90;92.40;;;;;;4980184;28;20030;-82
2021/06/14 02:59:15;;;;;;;4.13;3.13;;;21.90;92.50;;;;;;4972123;28;20274;-82
2021/06/14 03:01:44;;;;;;;4.07;3.00;;;21.90;92.70;;;;;;4978283;28;20560;-82
2021/06/14 03:04:10;;;;;;;4.45;3.13;;;21.80;92.80;;;;;;4973274;28;20027;-82
2021/06/14 03:06:36;;;;;;;4.88;3.10;;;21.80;93.00;;;;;;4976348;28;20026;-82
2021/06/14 03:09:06;;;;;;;3.67;2.85;;;21.80;93.10;;;;;;4971666;28;20045;-82
2021/06/14 03:11:32;;;;;;;4.72;3.53;;;21.70;93.20;;;;;;4973569;28;20022;-82
2021/06/14 03:13:58;;;;;;;6.38;3.30;;;21.60;93.20;;;;;;4971590;28;20027;-82
2021/06/14 03:16:26;;;;;;;4.85;3.40;;;21.60;93.40;;;;;;4973667;28;20491;-82
2021/06/14 03:18:52;;;;;;;6.30;3.55;;;21.60;93.50;;;;;;4971380;28;20027;-82
2021/06/14 03:21:21;;;;;;;5.43;3.47;;;21.60;93.90;;;;;;4974390;28;20033;-82
2021/06/14 03:23:50;;;;;;;5.43;3.03;;;21.50;93.90;;;;;;4972055;28;20106;-82
2021/06/14 03:26:18;;;;;;;4.90;3.28;;;21.50;94.00;;;;;;4974197;28;20023;-82
2021/06/14 03:28:46;;;;;;;6.10;3.83;;;21.50;94.10;;;;;;4973653;28;20137;-82
2021/06/14 03:31:14;;;;;;;6.40;3.00;;;21.40;94.20;;;;;;4973803;28;20022;-82
2021/06/14 03:33:47;;;;;;;4.55;3.35;;;21.40;94.50;;;;;;4967650;28;20027;-83
2021/06/14 03:36:15;;;;;;;3.83;3.33;;;21.40;94.50;;;;;;4973526;28;20041;-82
2021/06/14 03:38:44;;;;;;;6.75;3.25;;;21.40;94.40;;;;;;4975264;28;20035;-82
2021/06/14 03:41:10;;;;;;;3.85;3.25;;;21.40;94.40;;;;;;4973978;28;20027;-82
2021/06/14 03:43:36;;;;;;;4.20;3.38;;;21.30;94.50;;;;;;4971193;28;20034;-82
2021/06/14 03:46:01;;;;;;;5.80;3.55;;;21.40;94.70;;;;;;4975382;28;20054;-82
2021/06/14 03:48:28;;;;;;;4.72;3.30;;;21.40;94.60;;;;;;4971371;28;20380;-82
2021/06/14 03:50:54;;;;;;;3.67;3.20;;;21.30;94.80;;;;;;4973619;28;20062;-82
2021/06/14 03:53:33;;;;;;;5.22;3.45;;;21.30;94.60;;;;;;4972692;28;20038;-82
2021/06/14 03:56:07;;;;;;;5.57;3.28;;;21.30;94.80;;;;;;4980984;28;20537;-81
2021/06/14 03:58:33;;;;;;;4.78;3.55;;;21.20;95.00;;;;;;4984902;28;20559;-82
2021/06/14 04:00:59;;;;;;;5.07;3.55;;;21.20;95.00;;;;;;4997836;28;20404;-82
2021/06/14 04:03:29;;;;;;;5.38;3.70;;;21.20;95.10;;;;;;4976541;28;20542;-82
2021/06/14 04:05:57;;;;;;;5.13;3.60;;;21.20;95.10;;;;;;4980468;28;20589;-82
2021/06/14 04:08:23;;;;;;;9.05;3.88;;;21.10;95.30;;;;;;4982052;28;20027;-82
2021/06/14 04:10:49;;;;;;;4.95;3.50;;;21.10;95.30;;;;;;4981407;28;20105;-82
2021/06/14 04:13:15;;;;;;;5.68;3.50;;;21.10;95.80;;;;;;4984366;28;20090;-82
2021/06/14 04:15:40;;;;;;;6.18;3.78;;;21.10;95.30;;;;;;4981143;28;20073;-82
2021/06/14 04:18:06;;;;;;;5.10;3.70;;;21.00;95.50;;;;;;4986051;28;20026;-82
2021/06/14 04:20:32;;;;;;;4.90;3.25;;;21.00;95.60;;;;;;4975571;28;20084;-82
2021/06/14 04:22:58;;;;;;;6.38;3.30;;;21.00;95.60;;;;;;4988760;28;20479;-82
2021/06/14 04:25:24;;;;;;;3.95;3.55;;;21.00;95.70;;;;;;4993932;28;20027;-82
2021/06/14 04:27:50;;;;;;;5.47;3.35;;;20.90;96.00;;;;;;4991313;28;20034;-82
2021/06/14 04:30:16;;;;;;;5.85;3.70;;;20.90;95.90;;;;;;4979906;28;20054;-82
2021/06/14 04:32:42;;;;;;;4.60;3.85;;;20.90;96.10;;;;;;4986190;28;20026;-82
2021/06/14 04:35:09;;;;;;;5.50;3.97;;;20.90;96.30;;;;;;4982104;28;20538;-82
2021/06/14 04:37:34;;;;;;;4.85;3.58;;;20.90;96.20;;;;;;4966319;28;20033;-82
2021/06/14 04:40:00;;;;;;;4.95;3.40;;;20.90;96.20;;;;;;4976934;28;20034;-82
2021/06/14 04:42:27;;;;;;;4.55;3.72;;;21.00;96.10;;;;;;4983142;28;20022;-82
2021/06/14 04:44:53;;;;;;;4.78;3.65;;;21.00;96.10;;;;;;4976327;28;20142;-82
2021/06/14 04:47:19;;;;;;;5.75;3.65;;;21.00;96.10;;;;;;4986266;28;20019;-84
2021/06/14 04:49:45;;;;;;;5.35;3.85;;;21.00;96.10;;;;;;4976474;28;20451;-84
2021/06/14 04:52:11;;;;;;;7.72;3.92;;;21.00;96.00;;;;;;4979294;28;20023;-84
2021/06/14 04:54:37;;;;;;;4.10;3.20;;;21.00;96.00;;;;;;4974591;28;21111;-84
2021/06/14 04:57:03;;;;;;;4.55;3.63;;;21.10;96.30;;;;;;4973733;28;20110;-84
2021/06/14 04:59:28;;;;;;;4.60;3.67;;;21.00;96.50;;;;;;4988630;28;20042;-84
2021/06/14 05:01:54;;;;;;;7.55;3.33;;;21.00;96.20;;;;;;4973490;28;20098;-85
2021/06/14 05:04:20;;;;;;;5.47;3.60;;;21.10;96.20;;;;;;4974012;28;20019;-85
2021/06/14 05:06:45;;;;;;;5.03;3.35;;;21.10;96.10;;;;;;4973700;28;20029;-84
2021/06/14 05:09:12;;;;;;;6.65;3.63;;;21.10;96.10;;;;;;4973726;28;20042;-85
2021/06/14 05:11:38;;;;;;;4.00;3.60;;;21.10;96.00;;;;;;4973671;28;20023;-85
2021/06/14 05:14:03;;;;;;;5.10;3.53;;;21.20;95.70;;;;;;4973531;28;20093;-84
2021/06/14 05:16:30;;;;;;;3.90;3.35;;;21.30;95.70;;;;;;4977069;28;20046;-85
2021/06/14 05:18:56;;;;;;;6.65;3.63;;;21.30;95.70;;;;;;4973432;28;20090;-84
2021/06/14 05:21:22;;;;;;;6.20;3.83;;;21.30;95.70;;;;;;4985597;28;20496;-85
2021/06/14 05:23:47;;;;;;;5.88;3.60;;;21.30;95.50;;;;;;4999568;28;20027;-85
2021/06/14 05:26:13;;;;;;;8.55;3.58;;;21.30;95.90;;;;;;4978269;28;20049;-87
2021/06/14 05:28:39;;;;;;;6.05;3.55;;;21.30;95.90;;;;;;4976235;28;20384;-85
2021/06/14 05:31:05;;;;;;;7.25;3.50;;;21.40;95.80;;;;;;4994645;28;20507;-85
2021/06/14 05:33:31;;;;;;;5.05;3.60;;;21.40;95.70;;;;;;4987564;28;20023;-85
2021/06/14 05:35:56;;;;;;;7.57;4.57;;;21.50;95.40;;;;;;4970830;28;20081;-85
2021/06/14 05:38:22;;;;;;;8.55;3.65;;;21.50;95.30;;;;;;4987795;28;20186;-85
2021/06/14 05:40:48;;;;;;;7.07;3.65;;;21.60;95.10;;;;;;4975635;28;20042;-85
2021/06/14 05:43:13;;;;;;;5.07;4.10;;;21.70;95.10;;;;;;4973341;28;20058;-85
2021/06/14 05:45:39;;;;;;;7.75;3.67;;;21.70;94.50;;;;;;4979878;28;20399;-85
2021/06/14 05:48:06;;;;;;;8.98;3.83;;;21.70;94.90;;;;;;4978127;28;20033;-85
2021/06/14 05:50:31;;;;;;;4.65;3.05;;;21.80;94.80;;;;;;4978611;28;20435;-85
2021/06/14 05:52:57;;;;;;;6.93;3.58;;;21.80;94.30;;;;;;4979576;28;20035;-85
2021/06/14 05:55:23;;;;;;;8.23;3.63;;;21.80;94.30;;;;;;4976714;28;20034;-81
2021/06/14 05:57:49;;;;;;;5.57;3.20;;;21.90;94.70;;;;;;4979630;28;20648;-79
2021/06/14 06:00:15;;;;;;;6.45;3.70;;;22.00;94.90;;;;;;4973244;28;20488;-79
2021/06/14 06:02:40;;;;;;;5.57;3.22;;;22.00;94.30;;;;;;4977246;28;20022;-79
2021/06/14 06:05:07;;;;;;;8.50;3.00;;;22.10;94.20;;;;;;4976503;28;20486;-78
2021/06/14 06:07:35;;;;;;;7.80;3.10;;;22.10;94.00;;;;;;4971995;28;20383;-78
2021/06/14 06:10:00;;;;;;;5.05;3.22;;;22.10;94.10;;;;;;4973850;28;20229;-78
2021/06/14 06:12:26;;;;;;;8.75;3.05;;;22.30;93.50;;;;;;4974765;28;20154;-78
2021/06/14 06:14:52;;;;;;;6.60;3.25;;;22.40;93.20;;;;;;4973966;28;20030;-78
2021/06/14 06:17:18;;;;;;;4.32;3.30;;;22.40;93.00;;;;;;4976342;28;20030;-78
2021/06/14 06:19:44;;;;;;;6.30;2.75;;;22.50;93.30;;;;;;4974176;28;20089;-79
2021/06/14 06:22:09;;;;;;;3.60;2.75;;;22.60;93.60;;;;;;4978287;28;20054;-78
2021/06/14 06:24:35;;;;;;;6.20;2.67;;;22.60;92.70;;;;;;4973898;28;20031;-79
2021/06/14 06:27:01;;;;;;;3.47;2.65;;;22.70;92.20;;;;;;4980490;28;20034;-79
2021/06/14 06:29:27;;;;;;;7.13;2.88;;;22.80;91.80;;;;;;4973151;28;20077;-79
2021/06/14 06:31:53;;;;;;;8.20;3.40;;;22.90;92.10;;;;;;4985031;28;20061;-79
2021/06/14 06:34:18;;;;;;;5.78;2.85;;;22.90;91.20;;;;;;4972508;28;20073;-79
2021/06/14 06:36:44;;;;;;;3.92;3.05;;;23.00;92.00;;;;;;4980697;28;20029;-79
2021/06/14 06:39:10;;;;;;;5.07;2.90;;;23.10;92.10;;;;;;4972593;28;20442;-79
2021/06/14 06:41:35;;;;;;;3.38;2.60;;;23.20;91.00;;;;;;4977829;28;20030;-79
2021/06/14 06:44:02;;;;;;;4.00;3.00;;;23.20;90.50;;;;;;4974772;28;20026;-79
2021/06/14 06:46:28;;;;;;;7.75;3.28;;;23.30;90.20;;;;;;4978124;28;20053;-79
2021/06/14 06:48:53;;;;;;;4.15;2.80;;;23.40;90.20;;;;;;4972940;28;20018;-79
2021/06/14 06:51:19;;;;;;;4.55;2.80;;;23.40;90.60;;;;;;4982522;28;20713;-79
2021/06/14 06:53:45;;;;;;;4.15;2.65;;;23.50;90.60;;;;;;4971563;28;20399;-79
2021/06/14 06:56:10;;;;;;;4.35;2.80;;;23.60;90.30;;;;;;4982279;28;20034;-79
2021/06/14 06:58:36;;;;;;;3.83;2.60;;;23.70;90.20;;;;;;4971857;28;20419;-79
2021/06/14 07:01:02;;;;;;;3.70;2.75;;;23.80;90.80;;;;;;4974174;28;20396;-79
2021/06/14 07:03:28;;;;;;;4.32;2.25;;;23.90;89.30;;;;;;4977286;28;20524;-79
2021/06/14 07:05:54;;;;;;;4.50;2.60;;;23.90;89.20;;;;;;4976509;28;20126;-79
2021/06/14 07:08:21;;;;;;;3.92;2.70;;;24.00;90.00;;;;;;4977721;28;20097;-78
2021/06/14 07:10:46;;;;;;;6.32;3.08;;;24.10;89.60;;;;;;4975614;28;20086;-79
2021/06/14 07:13:14;;;;;;;6.15;2.88;;;24.20;88.50;;;;;;4978424;28;20022;-79
2021/06/14 07:15:40;;;;;;;7.25;3.05;;;24.20;88.00;;;;;;4976138;28;20034;-78
2021/06/14 07:18:05;;;;;;;4.88;3.15;;;24.30;89.90;;;;;;4979227;28;20049;-79
2021/06/14 07:20:31;;;;;;;4.10;2.80;;;24.50;87.90;;;;;;4976384;28;20333;-79
2021/06/14 07:22:57;;;;;;;6.63;2.88;;;24.60;88.80;;;;;;4980599;28;20444;-78
2021/06/14 07:25:23;;;;;;;6.60;2.90;;;24.70;88.20;;;;;;4975229;28;20447;-78
2021/06/14 07:27:49;;;;;;;4.88;2.30;;;24.80;85.80;;;;;;4983281;28;20078;-78
2021/06/14 07:30:16;;;;;;;4.90;2.78;;;24.80;85.80;;;;;;4973873;28;20574;-78
2021/06/14 07:32:43;;;;;;;6.13;2.83;;;24.90;87.20;;;;;;4983935;28;20060;-78
2021/06/14 07:35:11;;;;;;;9.02;3.17;;;25.00;86.30;;;;;;4974854;28;20057;-78
2021/06/14 07:37:37;;;;;;;6.18;2.90;;;25.00;86.20;;;;;;4981975;28;20439;-78
2021/06/14 07:40:05;;;;;;;4.32;3.00;;;25.10;85.10;;;;;;4974089;28;20134;-78
2021/06/14 07:42:31;;;;;;;5.95;3.08;;;25.10;85.30;;;;;;4980162;28;20380;-78
2021/06/14 07:44:57;;;;;;;6.20;2.47;;;25.20;85.30;;;;;;4974680;28;20035;-78
2021/06/14 07:47:23;;;;;;;3.60;2.40;;;25.30;82.80;;;;;;4976216;28;20050;-79
2021/06/14 07:49:49;;;;;;;3.05;2.45;;;25.40;82.80;;;;;;4974379;28;20057;-78
2021/06/14 07:52:14;;;;;;;5.82;2.40;;;25.50;82.60;;;;;;4980112;28;20030;-78
2021/06/14 07:54:40;;;;;;;3.15;2.63;;;25.60;82.90;;;;;;4974248;28;20250;-78
2021/06/14 07:57:07;;;;;;;4.53;2.40;;;25.80;81.40;;;;;;4969177;28;20530;-78
2021/06/14 07:59:34;;;;;;;5.57;2.63;;;25.80;81.30;;;;;;4972551;28;20038;-78
2021/06/14 08:02:00;;;;;;;5.38;2.70;;;25.90;80.50;;;;;;4981020;28;20027;-78
2021/06/14 08:04:26;;;;;;;5.07;2.60;;;26.10;78.80;;;;;;4971466;28;20058;-79
2021/06/14 08:06:52;;;;;;;7.32;2.63;;;26.20;78.10;;;;;;4980776;28;20026;-78
2021/06/14 08:09:25;;;;;;;4.20;2.38;;;26.20;78.00;;;;;;4971057;28;20073;-78
2021/06/14 08:11:50;;;;;;;6.07;3.05;;;26.30;80.00;;;;;;4981257;28;20118;-79
2021/06/14 08:14:16;;;;;;;3.25;2.53;;;26.40;78.90;;;;;;4971192;28;20543;-78
2021/06/14 08:16:43;;;;;;;3.45;2.50;;;26.50;78.80;;;;;;4981626;28;20522;-78
2021/06/14 08:19:13;;;;;;;3.20;2.55;;;26.60;77.70;;;;;;4970559;28;20045;-79
2021/06/14 08:26:53;;;;;;;;;;;26.90;77.60;;;;;;4975209;28;20042;-78
2021/06/14 08:29:19;;;;;;;5.28;2.85;;;26.90;75.90;;;;;;4971028;28;19906;-78
2021/06/14 08:31:45;;;;;;;6.35;2.75;;;27.00;76.90;;;;;;4981391;28;20476;-79
2021/06/14 08:34:11;;;;;;;3.90;2.97;;;27.00;74.90;;;;;;4970517;28;20034;-78
2021/06/14 08:36:39;;;;;;;4.15;2.30;;;27.00;76.20;;;;;;4982655;28;20530;-79
2021/06/14 08:39:09;;;;;;;3.83;2.45;;;27.00;75.70;;;;;;4970653;28;20038;-79
2021/06/14 08:41:35;;;;;;;3.88;2.47;;;26.90;75.20;;;;;;4983191;28;20621;-79
2021/06/14 08:44:00;;;;;;;7.75;2.70;;;27.00;77.00;;;;;;4974391;28;20105;-79
2021/06/14 08:46:27;;;;;;;3.05;2.53;;;27.00;74.30;;;;;;4977636;28;20060;-79
2021/06/14 08:48:54;;;;;;;4.82;2.80;;;27.10;72.80;;;;;;4977796;28;20019;-78
2021/06/14 08:51:20;;;;;;;4.47;2.60;;;27.10;73.20;;;;;;4977530;28;20034;-79
2021/06/14 08:53:51;;;;;;;5.82;3.75;;;27.10;72.70;;;;;;4979306;28;20023;-78
2021/06/14 08:56:19;;;;;;;3.60;2.85;;;27.20;72.30;;;;;;4978568;28;20137;-78
2021/06/14 08:58:47;;;;;;;5.82;2.50;;;27.20;70.70;;;;;;4980838;28;20173;-78
2021/06/14 09:01:13;;;;;;;5.03;2.67;;;27.30;70.80;;;;;;4979056;28;20019;-78
2021/06/14 09:03:39;;;;;;;3.20;2.30;;;27.30;70.30;;;;;;4981730;28;20030;-79
2021/06/14 09:06:05;;;;;;;2.65;2.13;;;27.40;70.80;;;;;;4979494;28;20070;-78
2021/06/14 09:08:31;;;;;;;3.45;2.50;;;27.50;70.40;;;;;;4982499;28;20480;-79
2021/06/14 09:10:56;;;;;;;3.80;2.47;;;27.60;70.20;;;;;;4980689;28;20029;-79
2021/06/14 09:13:27;;;;;;;3.67;2.60;;;27.50;68.10;;;;;;4983575;28;20105;-78
2021/06/14 09:16:07;;;;;;;3.00;2.60;;;27.60;70.30;;;;;;4981211;28;20026;-79
2021/06/14 09:18:34;;;;;;;2.92;2.40;;;27.70;69.10;;;;;;4982628;28;20098;-78
2021/06/14 09:21:07;;;;;;;4.97;2.47;;;27.80;69.40;;;;;;4981711;28;20046;-78
2021/06/14 09:23:58;;;;;;;6.82;2.67;;;27.80;70.00;;;;;;4973466;28;20380;-79
2021/06/14 09:26:34;;;;;;;3.85;2.42;;;27.90;68.60;;;;;;4983215;28;20084;-78
2021/06/14 09:29:04;;;;;;;3.85;2.47;;;27.90;70.70;;;;;;4984642;28;20041;-78
2021/06/14 09:32:00;;;;;;;3.63;2.33;;;28.00;70.40;;;;;;4979343;28;20495;-79
2021/06/14 09:34:42;;;;;;;4.82;2.70;;;28.00;69.00;;;;;;4988560;28;20444;-78
2021/06/14 09:37:10;;;;;;;3.05;2.45;;;28.00;68.90;;;;;;4996307;28;20041;-78
2021/06/14 09:39:43;;;;;;;5.18;2.55;;;28.00;67.50;;;;;;4974490;28;20067;-78
2021/06/14 09:42:16;;;;;;;3.58;2.65;;;28.00;71.30;;;;;;4980651;28;20030;-78
2021/06/14 09:44:42;;;;;;;5.53;2.75;;;28.10;70.20;;;;;;4974031;28;20041;-78
2021/06/14 09:47:10;;;;;;;5.50;2.30;;;28.20;70.40;;;;;;4981413;28;20035;-79
2021/06/14 09:49:37;;;;;;;4.78;2.58;;;28.30;68.50;;;;;;4974611;28;20280;-78
2021/06/14 09:52:04;;;;;;;3.92;2.50;;;28.40;69.30;;;;;;4990932;28;20026;-78
2021/06/14 09:54:35;;;;;;;3.22;2.50;;;28.50;65.20;;;;;;4973579;28;20094;-78
2021/06/14 09:57:04;;;;;;;2.50;2.20;;;28.40;66.80;;;;;;4981985;28;20035;-79
2021/06/14 09:59:39;;;;;;;3.72;2.40;;;28.50;64.50;;;;;;4973410;28;20092;-78
2021/06/14 10:02:19;;;;;;;3.50;2.53;;;28.60;65.10;;;;;;4981627;28;20030;-79
2021/06/14 10:04:52;;;;;;;5.25;1.90;;;28.70;64.90;;;;;;4975015;28;20031;-78
2021/06/14 10:07:21;;;;;;;3.25;2.20;;;28.80;63.50;;;;;;4979006;28;20037;-79
2021/06/14 10:09:52;;;;;;;2.70;2.13;;;28.90;60.70;;;;;;4975086;28;20031;-79
2021/06/14 10:12:25;;;;;;;6.00;2.55;;;28.90;60.10;;;;;;4980566;28;20038;-78
2021/06/14 10:15:04;;;;;;;4.30;2.40;;;28.90;60.70;;;;;;4987790;28;20026;-78
2021/06/14 10:17:36;;;;;;;5.38;2.50;;;29.00;62.50;;;;;;4981765;28;20034;-79
2021/06/14 10:20:11;;;;;;;5.78;2.20;;;29.00;62.50;;;;;;4974406;28;20034;-78
2021/06/14 10:22:37;;;;;;;2.95;2.00;;;29.10;61.90;;;;;;4982083;28;20034;-78
2021/06/14 10:25:05;;;;;;;6.65;2.33;;;29.20;61.30;;;;;;4978556;28;20019;-80
2021/06/14 10:27:35;;;;;;;4.75;2.60;;;29.20;60.80;;;;;;4971996;28;20031;-78
2021/06/14 10:30:02;;;;;;;4.30;2.40;;;29.20;62.20;;;;;;4974560;28;20057;-80
2021/06/14 10:32:29;;;;;;;3.83;2.20;;;29.20;61.90;;;;;;4983959;28;20443;-80
2021/06/14 10:34:57;;;;;;;3.28;2.40;;;29.10;61.90;;;;;;4974725;28;20023;-80
2021/06/14 10:37:25;;;;;;;6.95;2.55;;;29.00;62.10;;;;;;4975815;28;20109;-80
2021/06/14 10:39:55;;;;;;;3.80;2.55;;;29.00;63.10;;;;;;4974271;28;20186;-80
2021/06/14 10:42:21;;;;;;;5.00;2.72;;;29.10;63.20;;;;;;4977015;28;20027;-80
2021/06/14 10:44:47;;;;;;;5.05;2.70;;;29.20;61.40;;;;;;4973360;28;20022;-80
2021/06/14 10:47:13;;;;;;;6.32;2.65;;;29.30;62.30;;;;;;4975656;28;20030;-80
2021/06/14 10:49:39;;;;;;;7.38;2.60;;;29.10;62.00;;;;;;4971302;28;20509;-80
2021/06/14 10:52:07;;;;;;;4.18;2.20;;;29.20;61.70;;;;;;4971542;28;20101;-80
2021/06/14 10:54:44;;;;;;;4.35;2.28;;;29.20;62.10;;;;;;4972506;28;20125;-80
2021/06/14 10:57:11;;;;;;;5.50;2.88;;;29.00;61.30;;;;;;4972562;28;20053;-80
2021/06/14 10:59:39;;;;;;;6.22;2.85;;;28.90;61.30;;;;;;4972118;28;20046;-80
2021/06/14 11:02:07;;;;;;;5.30;2.90;;;29.00;61.90;;;;;;4975811;28;20023;-81
2021/06/14 11:04:34;;;;;;;4.43;2.95;;;29.00;61.70;;;;;;4971925;28;20495;-80
2021/06/14 11:07:01;;;;;;;3.88;2.60;;;29.00;62.60;;;;;;4980452;28;20049;-81
2021/06/14 11:09:44;;;;;;;4.55;2.38;;;28.90;62.50;;;;;;4972111;28;20166;-80
2021/06/14 11:12:23;;;;;;;5.30;2.47;;;29.00;63.30;;;;;;4979811;28;20019;-80
2021/06/14 11:14:48;;;;;;;4.93;2.72;;;29.10;62.20;;;;;;4973840;28;20030;-80
2021/06/14 11:17:17;;;;;;;4.25;2.60;;;29.30;61.90;;;;;;4973197;28;20162;-77
2021/06/14 11:19:45;;;;;;;3.80;2.67;;;29.20;61.60;;;;;;4973423;28;20041;-72
2021/06/14 11:22:11;;;;;;;5.32;2.92;;;29.20;61.40;;;;;;4969130;28;20023;-74
2021/06/14 11:24:39;;;;;;;5.28;2.67;;;29.30;61.30;;;;;;4971772;28;20113;-75
2021/06/14 11:27:08;;;;;;;4.00;2.65;;;29.30;61.10;;;;;;4969163;28;20027;-73
2021/06/14 11:29:47;;;;;;;7.75;3.05;;;29.30;61.10;;;;;;4958687;28;20100;-74
2021/06/14 11:32:19;;;;;;;5.25;2.30;;;29.30;61.80;;;;;;4971440;28;20023;-73
2021/06/14 11:34:48;;;;;;;6.07;2.60;;;29.50;60.30;;;;;;4971509;28;20457;-74
2021/06/14 11:37:14;;;;;;;5.18;2.65;;;29.40;60.60;;;;;;4969500;28;20381;-73
2021/06/14 11:39:40;;;;;;;5.22;2.50;;;29.40;60.50;;;;;;4970869;28;20658;-73
2021/06/14 11:42:16;;;;;;;3.83;2.50;;;29.30;60.60;;;;;;4968834;28;20035;-73
2021/06/14 11:44:56;;;;;;;4.38;2.53;;;29.30;60.90;;;;;;4967939;28;20345;-74
2021/06/14 11:47:27;;;;;;;4.80;2.60;;;29.50;61.90;;;;;;4976463;28;20030;-75
2021/06/14 11:50:00;;;;;;;4.07;2.42;;;29.60;60.10;;;;;;4972721;28;20032;-74
2021/06/14 11:52:33;;;;;;;6.18;2.72;;;29.20;61.00;;;;;;4975572;28;20480;-74
2021/06/14 11:55:01;;;;;;;3.67;2.35;;;29.40;60.20;;;;;;4973678;28;20093;-75
2021/06/14 11:57:42;;;;;;;2.50;2.30;;;29.60;58.90;;;;;;4975242;28;20049;-74
2021/06/14 12:00:24;;;;;;;4.88;2.33;;;29.50;59.40;;;;;;4972694;28;20403;-75
2021/06/14 12:02:50;;;;;;;5.50;2.70;;;29.70;59.30;;;;;;4976998;28;20018;-74
2021/06/14 12:05:16;;;;;;;5.28;2.47;;;29.50;58.20;;;;;;4972733;28;20026;-74
2021/06/14 12:07:42;;;;;;;10.02;3.10;;;29.50;59.50;;;;;;4987571;28;20030;-74
2021/06/14 12:10:13;;;;;;;5.78;2.78;;;29.70;58.00;;;;;;4974098;28;20026;-74
2021/06/14 12:12:41;;;;;;;5.22;3.22;;;29.70;58.50;;;;;;4981544;28;20022;-75
2021/06/14 12:15:11;;;;;;;18.17;3.85;;;29.90;57.30;;;;;;4977389;28;20068;-74
2021/06/14 12:17:41;;;;;;;16.85;4.28;;;30.00;57.10;;;;;;4985220;28;20120;-74
2021/06/14 12:20:10;;;;;;;3.95;2.60;;;29.90;57.40;;;;;;4981480;28;20506;-74
2021/06/14 12:22:37;;;;;;;5.75;2.45;;;30.10;57.40;;;;;;4975607;28;20018;-74
2021/06/14 12:25:12;;;;;;;2.72;2.30;;;30.30;57.10;;;;;;4976146;28;20037;-75
2021/06/14 12:27:39;;;;;;;4.18;2.38;;;30.50;58.00;;;;;;4982394;28;20018;-75
2021/06/14 12:30:08;;;;;;;7.13;2.50;;;30.50;56.10;;;;;;4976120;28;20038;-74
2021/06/14 12:32:34;;;;;;;3.90;2.28;;;30.50;57.10;;;;;;4982430;28;20428;-74
2021/06/14 12:35:03;;;;;;;6.03;2.47;;;30.50;56.60;;;;;;4976190;28;20125;-74
2021/06/14 12:37:29;;;;;;;4.78;2.50;;;30.50;57.10;;;;;;4982045;28;20543;-74
2021/06/14 12:39:56;;;;;;;4.88;2.35;;;30.40;57.70;;;;;;4976231;28;20049;-74
2021/06/14 12:42:22;;;;;;;6.47;2.85;;;30.40;57.00;;;;;;4981824;28;20034;-74
2021/06/14 12:45:08;;;;;;;3.72;2.65;;;30.30;56.70;;;;;;4975937;28;20542;-74
2021/06/14 12:47:34;;;;;;;5.60;2.30;;;30.30;56.30;;;;;;4982085;28;20023;-74
2021/06/14 12:50:02;;;;;;;4.80;2.50;;;30.30;55.70;;;;;;4975985;28;20483;-74
2021/06/14 12:52:29;;;;;;;4.97;2.25;;;30.40;56.30;;;;;;4980157;28;20027;-74
2021/06/14 12:54:56;;;;;;;7.55;2.72;;;30.40;57.10;;;;;;4975837;28;20495;-74
2021/06/14 12:57:34;;;;;;;4.97;2.70;;;30.70;56.10;;;;;;4981487;28;20060;-74